This is the latest recevied weather packets stored in our database for station/object LRSM. If no packets are shown the sender has not sent any weather packets the latest 10 day(s).
| Time | Temp. | Humidity | Pressure | Rain* | Wind** | Luminosity | Snow |
|---|---|---|---|---|---|---|---|
| 1778133812 | 20° C | 49% | 1013 hPa | - | - | - | - |
| 1778132912 | 18.89° C | 52% | 1013 hPa | - | - | - | - |
| 1778132020 | 18.89° C | 52% | 1013 hPa | - | - | - | - |
| 1778131113 | 17.78° C | 56% | 1012 hPa | - | - | - | - |
| 1778130212 | 17.78° C | 56% | 1012 hPa | - | - | - | - |
| 1778129309 | 16.11° C | 63% | 1012 hPa | - | - | - | - |
| 1778128412 | 16.11° C | 63% | 1012 hPa | - | - | - | - |
| 1778127513 | 13.89° C | 67% | 1012 hPa | - | - | - | - |
| 1778126612 | 13.89° C | 67% | 1012 hPa | - | - | - | - |
| 1778125709 | 13.89° C | 67% | 1012 hPa | - | - | - | - |
| 1778124812 | 13.89° C | 67% | 1012 hPa | - | - | - | - |
| 1778123912 | 12.78° C | 72% | 1012 hPa | - | - | - | - |
| 1778123012 | 12.78° C | 72% | 1012 hPa | - | - | - | - |
| 1778121212 | 11.11° C | 77% | 1012 hPa | - | - | - | - |
| 1778120313 | 11.11° C | 77% | 1011 hPa | - | - | - | - |
| 1778119412 | 11.11° C | 77% | 1011 hPa | - | - | - | - |
| 1778118512 | 12.22° C | 72% | 1011 hPa | - | - | - | - |
| 1778117612 | 12.22° C | 72% | 1011 hPa | - | - | - | - |
| 1778116712 | 11.11° C | 77% | 1011 hPa | - | - | - | - |
| 1778115813 | 11.11° C | 77% | 1011 hPa | - | - | - | - |
| 1778114912 | 11.11° C | 77% | 1011 hPa | - | - | - | - |
| 1778114013 | 11.11° C | 77% | 1011 hPa | - | - | - | - |
| 1778113112 | 12.22° C | 72% | 1011 hPa | - | - | - | - |
| 1778112213 | 12.22° C | 72% | 1011 hPa | - | - | - | - |
| 1778111312 | 12.22° C | 72% | 1011 hPa | - | - | - | - |
* Rain since midnight (hover to see other rain measurements)
** Current wind speed in m/s (hover to see current wind gust speed)